Terminal Aerodrome Forecast
Issued by NWS Memphis, TN

Home | Current Version | Previous Version | Text Only | Print | Product List | Glossary On
Versions: 1 2 3 4 5 6 7 8 9 10 11 12 13 14 15 16 17 18 19 20 21 22 23 24 25 26 27 28 29 30 31 32
000
FTUS44 KMEG 032059 AAB
TAFMEM
TAF AMD
KMEM 032059Z 0321/0418 32009KT P6SM FEW035 OVC060
     FM040100 30003KT P6SM FEW060
     FM041300 26008KT P6SM SKC
     FM041500 29014G23KT P6SM BKN040=

USA.gov is the U.S. government's official web portal to all federal, state and local government web resources and services.